Latest Coastal Weather Observations for Horn Island

IDQ60701

Issued at 5:12 am EST Saturday 29 July 2017 (issued every 10 minutes, with the page automatically refreshed every 10 minutes)

About coastal observations | Map of coastal stations | Coastal observations for QLD | Marine services | Other Formats
Station Details ID: 027058 Name: HORN ISLAND Lat: -10.58 Lon: 142.29 Height: 4.0 m
Data from the previous 72 hours. | See also: Recent months at Horn Island
Date/Time
EST
Temp
°C
Wind Pressure Rain since
9am
mm
Weather Cloud Vis
km
Sea
Height
m
Swell
Dir  Spd
kts
Gust
kts
hPa Trend Height
m
Period
s
Dir
29/05:00am 24.1 ESE 12 17 1014.2 - 0.2 - Partly cloudy 10 - - - -
29/04:30am 23.9 SE 11 16 1014.0 - 0.2 - Partly cloudy 10 - - - -
29/04:00am 23.9 SE 12 16 1013.9 - 0.2 - Partly cloudy 10 - - - -
29/03:39am 23.7 SE 12 15 1013.8 - 0.2 - Partly cloudy 10 - - - -
29/03:30am 23.6 ESE 15 23 1013.8 - 0.2 - Partly cloudy 6 - - - -
29/03:23am 23.8 ESE 14 23 1014.0 - 0.2 - Partly cloudy 5 - - - -
29/03:00am 24.7 ESE 13 19 1013.8 - 0.0 - Cloudy 10 - - - -
29/02:30am 24.3 SSE 10 14 1013.9 - 0.0 - Partly cloudy 10 - - - -
29/02:02am 24.2 SE 9 14 1014.1 - 0.0 - Partly cloudy 10 - - - -
29/02:00am 24.2 SE 9 15 1014.1 - 0.0 - Partly cloudy 10 - - - -
29/01:51am 24.1 SE 11 16 1014.1 - 0.0 - Partly cloudy 10 - - - -
29/01:30am 24.1 SE 11 16 1014.3 - 0.0 - Partly cloudy 10 - - - -
29/01:00am 24.1 SE 11 19 1014.6 - 0.0 - Cloudy 10 - - - -
29/12:30am 24.1 SE 16 26 1014.7 - 0.0 - Partly cloudy 10 - - - -
29/12:28am 24.2 SE 15 26 1014.7 - 0.0 - Partly cloudy 10 - - - -
29/12:00am 23.9 SE 13 17 1014.8 - 0.0 - Mostly cloudy 10 - - - -
 
Date/Time
EST
Temp
°C
Wind Pressure Rain since
9am
mm
Weather Cloud Vis
km
Sea
Height
m
Swell
Dir  Spd
kts
Gust
kts
hPa Trend Height
m
Period
s
Dir
28/11:30pm 24.7 SSE 9 12 1015.0 - 0.0 - Partly cloudy 10 - - - -
28/11:00pm 24.5 SE 9 14 1015.1 - 0.0 - Partly cloudy 10 - - - -
28/10:30pm 24.4 SE 9 15 1015.2 - 0.0 - Partly cloudy 10 - - - -
28/10:00pm 24.4 SE 10 14 1015.5 - 0.0 - Partly cloudy 10 - - - -
28/09:30pm 24.3 SE 9 13 1015.4 - 0.0 - - 10 - - - -
28/09:00pm 24.4 SSE 11 17 1015.3 - 0.0 - - 10 - - - -
28/08:30pm 24.6 SE 10 16 1015.1 - 0.0 - - 10 - - - -
28/08:00pm 24.8 SE 10 14 1014.9 - 0.0 - Partly cloudy 10 - - - -
28/07:30pm 25.1 SE 13 18 1014.6 - 0.0 - Partly cloudy 10 - - - -
28/07:00pm 25.2 SE 14 20 1014.4 - 0.0 - Partly cloudy 10 - - - -
28/06:30pm 25.3 ESE 15 21 1014.2 - 0.0 - - 10 - - - -
28/06:00pm 25.8 SE 15 21 1013.9 - 0.0 - - 10 - - - -
28/05:30pm 26.3 SE 17 22 1013.5 - 0.0 - - 10 - - - -
28/05:00pm 27.0 SE 16 23 1013.4 - 0.0 - - 10 - - - -
28/04:30pm 27.6 ESE 16 23 1013.1 - 0.0 - - 10 - - - -
28/04:10pm 27.2 ESE 17 28 1013.0 - 0.0 - - 10 - - - -
28/04:00pm 27.6 ESE 18 24 1013.0 - 0.0 - - 10 - - - -
28/03:30pm 28.6 ESE 18 25 1013.1 - 0.0 - Partly cloudy 10 - - - -
28/03:00pm 27.9 ESE 18 26 1013.2 - 0.0 - - 10 - - - -
28/02:30pm 28.3 ESE 18 23 1013.4 - 0.0 - - 10 - - - -
28/02:00pm 27.7 ESE 19 24 1013.7 - 0.0 - - 10 - - - -
28/01:30pm 27.6 ESE 19 25 1014.2 - 0.0 - - 10 - - - -
28/01:00pm 28.2 ESE 18 24 1014.6 - 0.0 - - 10 - - - -
28/12:30pm 28.2 ESE 18 24 1014.9 - 0.0 - - 10 - - - -
28/12:00pm 28.8 ESE 16 22 1015.2 - 0.0 - Mostly clear 10 - - - -
28/11:30am 28.2 ESE 19 25 1015.4 - 0.0 - Partly cloudy 10 - - - -
28/11:00am 27.8 ESE 17 23 1015.5 - 0.0 - - 10 - - - -
28/10:30am 27.6 E 17 25 1015.7 - 0.0 - - 10 - - - -
28/10:00am 27.3 ESE 16 23 1016.0 - 0.0 - Partly cloudy 10 - - - -
28/09:30am 25.9 SSE 10 15 1016.0 - 0.0 - Partly cloudy 10 - - - -
28/09:00am 25.4 SSE 8 12 1016.0 - 0.2 - Mostly cloudy 10 - - - -
28/08:30am 24.5 SSE 6 9 1015.7 - 0.2 - Partly cloudy 10 - - - -
28/08:00am 23.6 S 6 8 1015.5 - 0.2 - Partly cloudy 10 - - - -
28/07:30am 23.0 S 4 6 1015.3 - 0.2 - Partly cloudy 10 - - - -
28/07:00am 22.9 S 5 7 1015.0 - 0.2 - Partly cloudy 10 - - - -
28/06:30am 23.6 S 6 8 1014.7 - 0.2 - Partly cloudy 10 - - - -
28/06:00am 24.1 S 7 9 1014.4 - 0.2 - Cloudy 10 - - - -
28/05:30am 24.5 SSE 8 11 1014.3 - 0.2 - Partly cloudy 10 - - - -
28/05:00am 24.5 SE 9 13 1014.2 - 0.2 - Partly cloudy 10 - - - -
28/04:30am 24.4 SE 12 16 1014.0 - 0.2 - Partly cloudy 10 - - - -
28/04:00am 24.4 ESE 12 18 1013.7 - 0.2 - - 10 - - - -
28/03:30am 24.5 ESE 14 19 1013.8 - 0.2 - Partly cloudy 10 - - - -
28/03:00am 24.6 ESE 12 17 1013.9 - 0.2 - Partly cloudy 10 - - - -
28/02:30am 24.4 ESE 11 16 1014.0 - 0.2 - Partly cloudy 10 - - - -
28/02:00am 24.4 ESE 12 17 1014.3 - 0.2 - Partly cloudy 10 - - - -
28/01:30am 24.9 ESE 14 20 1014.4 - 0.2 - Cloudy 10 - - - -
28/01:00am 24.8 SE 12 19 1014.5 - 0.2 - Partly cloudy 10 - - - -
28/12:30am 24.7 ESE 13 19 1014.7 - 0.2 - Partly cloudy 10 - - - -
28/12:00am 25.0 SE 12 17 1014.9 - 0.2 - Mostly cloudy 10 - - - -
 
Date/Time
EST
Temp
°C
Wind Pressure Rain since
9am
mm
Weather Cloud Vis
km
Sea
Height
m
Swell
Dir  Spd
kts
Gust
kts
hPa Trend Height
m
Period
s
Dir
27/11:30pm 24.9 SE 12 19 1015.1 - 0.2 - Partly cloudy 10 - - - -
27/11:00pm 25.1 SE 12 20 1015.1 - 0.2 - Partly cloudy 10 - - - -
27/10:30pm 25.0 ESE 12 18 1015.2 - 0.2 - Partly cloudy 10 - - - -
27/10:00pm 25.1 SE 14 20 1015.3 - 0.2 - Partly cloudy 10 - - - -
27/09:30pm 25.1 SE 12 18 1015.1 - 0.2 - Partly cloudy 10 - - - -
27/09:00pm 25.1 SE 14 21 1014.8 - 0.2 - Cloudy 10 - - - -
27/08:30pm 25.1 SE 13 19 1014.6 - 0.2 - Partly cloudy 10 - - - -
27/08:00pm 25.0 SE 14 19 1014.2 - 0.2 - Partly cloudy 10 - - - -
27/07:30pm 25.4 SE 16 22 1014.0 - 0.2 - Partly cloudy 10 - - - -
27/07:00pm 25.4 SE 13 19 1013.8 - 0.2 - Partly cloudy 10 - - - -
27/06:52pm 25.4 SE 15 25 1013.7 - 0.2 - Partly cloudy 10 - - - -
27/06:30pm 25.3 ESE 14 20 1013.6 - 0.2 - Partly cloudy 10 - - - -
27/06:00pm 25.6 ESE 18 25 1013.4 - 0.2 - Partly cloudy 10 - - - -
27/05:49pm 25.7 SE 18 28 1013.3 - 0.2 - Partly cloudy 10 - - - -
27/05:30pm 26.1 SE 17 22 1013.1 - 0.2 - Partly cloudy 10 - - - -
27/05:15pm 26.2 SE 17 27 1012.9 - 0.2 - Partly cloudy 10 - - - -
27/05:00pm 25.8 SE 18 27 1012.8 - 0.2 - Cloudy 10 - - - -
27/04:55pm 25.9 SE 17 27 1012.7 - 0.2 - Cloudy 10 - - - -
27/04:30pm 26.1 ESE 17 25 1012.4 - 0.2 - Partly cloudy 10 - - - -
27/04:00pm 27.1 SE 16 24 1012.3 - 0.2 - Cloudy 10 - - - -
27/03:30pm 26.9 SE 18 27 1012.2 - 0.2 - Cloudy 10 - - - -
27/03:00pm 27.5 ESE 17 25 1012.1 - 0.2 - Cloudy 10 - - - -
27/02:45pm 27.0 ESE 18 28 1012.1 - 0.2 - Cloudy 10 - - - -
27/02:30pm 28.0 ESE 19 27 1012.2 - 0.2 - Cloudy 10 - - - -
27/02:00pm 28.3 ESE 16 22 1012.5 - 0.2 - Partly cloudy 10 - - - -
27/01:30pm 27.6 ESE 18 23 1012.9 - 0.2 - Cloudy 10 - - - -
27/01:00pm 27.9 ESE 18 24 1013.1 - 0.2 - Cloudy 10 - - - -
27/12:30pm 27.1 ESE 18 23 1013.5 - 0.2 - Cloudy 10 - - - -
27/12:00pm 28.0 ESE 19 26 1013.7 - 0.2 - Mostly clear 10 - - - -
27/11:30am 27.1 ESE 18 24 1014.1 - 0.2 - Cloudy 10 - - - -
27/11:00am 26.5 ESE 14 20 1014.3 - 0.2 - Partly cloudy 10 - - - -
27/10:52am 26.7 ESE 16 26 1014.4 - 0.2 - Partly cloudy 10 - - - -
27/10:30am 27.3 E 18 26 1014.4 - 0.0 - Partly cloudy 10 - - - -
27/10:00am 26.7 ESE 17 22 1014.6 - 0.0 - Partly cloudy 10 - - - -
27/09:30am 26.4 E 18 26 1014.5 - 0.0 - Partly cloudy 10 - - - -
27/09:25am 26.3 ESE 16 26 1014.5 - 0.0 - Partly cloudy 10 - - - -
27/09:00am 26.3 ESE 17 23 1014.4 - 1.2 - Partly cloudy 10 - - - -
27/08:49am 25.9 ESE 16 26 1014.3 - 1.2 - Partly cloudy 10 - - - -
27/08:30am 25.4 ESE 11 17 1014.2 - 1.2 - Partly cloudy 10 - - - -
27/08:00am 24.6 ESE 12 17 1014.2 - 1.2 - Partly cloudy 10 - - - -
27/07:30am 24.3 SE 11 14 1013.9 - 1.2 - Partly cloudy 10 - - - -
27/07:00am 24.1 ESE 12 17 1013.7 - 1.2 - Partly cloudy 10 - - - -
27/06:30am 24.0 ESE 13 19 1013.5 - 1.2 - Partly cloudy 10 - - - -
27/06:00am 24.2 ESE 14 19 1013.2 - 1.2 - Partly cloudy 10 - - - -
27/05:30am 24.4 ESE 12 18 1013.1 - 1.2 - Partly cloudy 10 - - - -
27/05:00am 23.8 ESE 12 16 1013.2 - 1.2 - Partly cloudy 10 - - - -
27/04:30am 24.3 SSE 12 18 1013.1 - 1.0 - Partly cloudy 10 - - - -
27/04:00am 24.4 E 12 19 1013.1 - 1.0 - Partly cloudy 10 - - - -
27/03:30am 24.3 E 13 18 1013.2 - 1.0 - Partly cloudy 10 - - - -
27/03:00am 24.0 ESE 13 19 1013.4 - 1.0 - Cloudy 10 - - - -
27/02:30am 23.2 ESE 13 19 1013.8 - 1.0 - Partly cloudy 10 - - - -
27/02:17am 23.2 ESE 15 26 1013.9 - 1.0 - Partly cloudy 10 - - - -
27/02:00am 24.4 ESE 12 18 1013.9 - 1.0 - Cloudy 10 - - - -
27/01:30am 24.2 ESE 13 18 1014.0 - 1.0 - Cloudy 10 - - - -
27/01:00am 23.9 ESE 11 17 1014.1 - 1.0 - Partly cloudy 10 - - - -
27/12:30am 23.8 SE 11 16 1014.4 - 1.0 - Partly cloudy 10 - - - -
27/12:00am 23.5 SE 7 9 1014.5 - 1.0 - Cloudy 10 - - - -
 
Date/Time
EST
Temp
°C
Wind Pressure Rain since
9am
mm
Weather Cloud Vis
km
Sea
Height
m
Swell
Dir  Spd
kts
Gust
kts
hPa Trend Height
m
Period
s
Dir
26/11:58pm 23.5 SE 7 11 1014.5 - 1.0 - Partly cloudy 10 - - - -
26/11:30pm 23.8 SE 9 13 1014.5 - 0.2 - Partly cloudy 5 - - - -
26/11:23pm 23.9 SE 10 13 1014.5 - 0.0 - Partly cloudy 5 - - - -
26/11:00pm 24.3 SE 12 19 1014.5 - 0.0 - Partly cloudy 10 - - - -
26/10:30pm 23.4 SSE 11 16 1014.8 - 0.0 - Partly cloudy 10 - - - -
26/10:00pm 23.8 SE 10 19 1014.7 - 0.0 - Cloudy 10 - - - -
26/09:30pm 23.5 SSE 10 15 1014.8 - 0.0 - Partly cloudy 10 - - - -
26/09:09pm 23.5 SE 10 15 1014.6 - 0.0 - Partly cloudy 10 - - - -
26/09:00pm 23.6 SE 11 17 1014.7 - 0.0 - Cloudy 6 - - - -
26/08:52pm 23.9 ESE 12 19 1014.7 - 0.0 - Partly cloudy 5 - - - -
26/08:30pm 24.3 SE 13 19 1014.3 - 0.0 - Partly cloudy 10 - - - -
26/08:00pm 24.0 ESE 12 15 1014.1 - 0.0 - Partly cloudy 10 - - - -
26/07:59pm 24.0 ESE 12 15 1014.1 - 0.0 - Partly cloudy 10 - - - -
26/07:49pm 24.1 ESE 16 23 1014.1 - 0.0 - Partly cloudy 5 - - - -
26/07:30pm 25.5 SE 14 21 1013.7 - 0.0 - Partly cloudy 10 - - - -
26/07:00pm 25.4 SE 15 23 1013.1 - 0.0 - Partly cloudy 10 - - - -
26/06:30pm 25.6 SE 15 20 1012.8 - 0.0 - Partly cloudy 10 - - - -
26/06:00pm 25.9 SE 16 24 1012.6 - 0.0 - Cloudy 10 - - - -
26/05:51pm 26.0 ESE 17 27 1012.5 - 0.0 - Partly cloudy 10 - - - -
26/05:30pm 26.2 SE 18 24 1012.3 - 0.0 - Partly cloudy 10 - - - -
26/05:00pm 26.7 ESE 17 24 1012.0 - 0.0 - Partly cloudy 10 - - - -
26/04:30pm 25.2 ESE 17 26 1012.1 - 0.0 - Partly cloudy 9 - - - -
26/04:00pm 26.8 ESE 19 27 1012.0 - 0.0 - Partly cloudy 10 - - - -
26/03:51pm 27.2 ESE 17 27 1011.9 - 0.0 - Partly cloudy 10 - - - -
26/03:30pm 28.1 SE 18 27 1012.0 - 0.0 - Partly cloudy 10 - - - -
26/03:18pm 28.4 SE 19 29 1012.0 - 0.0 - Partly cloudy 10 - - - -
26/03:00pm 27.8 ESE 19 26 1012.0 - 0.0 - Partly cloudy 10 - - - -
26/02:30pm 28.6 SE 17 25 1012.1 - 0.0 - Cloudy 10 - - - -
26/02:23pm 28.1 ESE 18 28 1012.2 - 0.0 - Cloudy 10 - - - -
26/02:00pm 27.9 ESE 19 27 1012.5 - 0.0 - Cloudy 10 - - - -
26/01:30pm 28.9 ESE 18 26 1012.8 - 0.0 - Partly cloudy 10 - - - -
26/01:00pm 28.4 ESE 19 26 1013.3 - 0.0 - Partly cloudy 10 - - - -
26/12:30pm 28.2 ESE 18 25 1013.7 - 0.0 - Partly cloudy 10 - - - -
26/12:00pm 27.6 ESE 17 23 1013.9 - 0.0 - Cloudy 10 - - - -
26/11:30am 27.9 ESE 18 26 1014.1 - 0.0 - Partly cloudy 10 - - - -
26/11:00am 28.1 ESE 18 24 1014.2 - 0.0 - Partly cloudy 10 - - - -
26/10:30am 27.4 ESE 18 24 1014.4 - 0.0 - Partly cloudy 10 - - - -
26/10:00am 27.2 ESE 17 22 1014.4 - 0.0 - Partly cloudy 10 - - - -
26/09:30am 27.1 SE 14 22 1014.5 - 0.0 - Cloudy 10 - - - -
26/09:00am 25.9 SE 14 18 1014.5 - 0.0 - Mostly cloudy 10 - - - -
26/08:30am 25.7 ESE 13 21 1014.1 - 0.0 - Partly cloudy 10 - - - -
26/08:00am 25.3 SE 13 20 1013.7 - 0.0 - Cloudy 10 - - - -
26/07:30am 25.0 SE 13 18 1013.4 - 0.0 - Cloudy 10 - - - -
26/07:00am 25.2 ESE 14 20 1013.3 - 0.0 - Partly cloudy 10 - - - -
26/06:30am 24.8 ESE 12 16 1013.1 - 0.0 - - 10 - - - -
26/06:00am 24.5 SE 11 16 1012.8 - 0.0 - Partly cloudy 10 - - - -
26/05:30am 24.5 SE 12 17 1012.5 - 0.0 - Partly cloudy 10 - - - -

Other Formats:

Comma delimited format used in spreadsheet applications
http://www.bom.gov.au/fwo/IDQ60701/IDQ60701.94174.axf

JavaScript Object Notation format (JSON) in row-major order
http://www.bom.gov.au/fwo/IDQ60701/IDQ60701.94174.json